Time;durP1;ratioP1;P1;durP2;ratioP2;P2;SDS_P1;SDS_P2;PMS_P1;PMS_P2;Temp;Humidity;BMP_temperature;BMP_pressure;BME280_temperature;BME280_humidity;BME280_pressure;Samples;Min_cycle;Max_cycle;Signal;HPM_P1;HPM_P2
2023/05/16 00:02:22;;;;;;;;;;;13.40;82.50;;;12.56;75.52;95832.94;5074560;28;20216;-82
2023/05/16 00:04:52;;;;;;;;;;;13.40;82.20;;;12.56;75.34;95830.19;5074794;28;19920;-82
2023/05/16 00:07:20;;;;;;;;;;;13.40;82.10;;;12.56;75.48;95830.19;5074581;28;19920;-82
2023/05/16 00:09:48;;;;;;;;;;;13.50;82.30;;;12.54;75.42;95840.66;5073902;28;19920;-83
2023/05/16 00:12:16;;;;;;;;;;;13.40;82.20;;;12.56;75.57;95843.91;5057894;28;19920;-83
2023/05/16 00:14:44;;;;;;;;;;;13.40;82.20;;;12.55;74.97;95847.78;5057779;28;19920;-83
2023/05/16 00:17:13;;;;;;;;;;;13.40;81.70;;;12.55;74.82;95834.03;5057900;28;19921;-83
2023/05/16 00:19:41;;;;;;;;;;;13.50;81.40;;;12.55;75.29;95834.03;5073796;28;19927;-83
2023/05/16 00:22:11;;;;;;;;;;;13.40;81.90;;;12.57;74.99;95833.75;5074625;28;19926;-84
2023/05/16 00:24:39;;;;;;;;;;;13.40;81.60;;;12.57;75.34;95833.75;5074394;28;19927;-83
2023/05/16 00:27:07;;;;;;;;;;;13.40;81.70;;;12.57;75.43;95833.75;5057745;28;19920;-83
2023/05/16 00:29:35;;;;;;;;;;;13.40;81.90;;;12.56;75.08;95835.69;5073557;28;19920;-83
2023/05/16 00:32:03;;;;;;;;;;;13.40;82.00;;;12.57;75.06;95834.56;5074352;28;19926;-83
2023/05/16 00:34:31;;;;;;;;;;;13.40;81.70;;;12.57;75.34;95841.97;5074164;28;19977;-83
2023/05/16 00:36:59;;;;;;;;;;;13.40;81.90;;;12.56;75.38;95838.44;5073997;28;20093;-83
2023/05/16 00:39:29;;;;;;;;;;;13.40;82.10;;;12.56;75.65;95843.91;5073411;28;19921;-83
2023/05/16 00:41:57;;;;;;;;;;;13.40;82.20;;;12.58;75.71;95843.63;5057535;28;19957;-83
2023/05/16 00:44:26;;;;;;;;;;;13.40;82.20;;;12.57;75.87;95848.31;5057312;28;19920;-82
2023/05/16 00:46:54;;;;;;;;;;;13.40;82.50;;;12.57;75.85;95844.72;5074260;28;20120;-83
2023/05/16 00:49:22;;;;;;;;;;;13.40;82.60;;;12.57;76.01;95847.47;5072827;28;19920;-83
2023/05/16 00:51:50;;;;;;;;;;;13.50;82.60;;;12.56;75.42;95857.66;5092301;28;20103;-82
2023/05/16 00:54:18;;;;;;;;;;;13.40;82.10;;;12.57;75.75;95855.72;5073917;28;19920;-83
2023/05/16 00:56:48;;;;;;;;;;;13.40;82.50;;;12.56;75.88;95857.66;5091783;28;19934;-83
2023/05/16 00:59:17;;;;;;;;;;;13.50;82.60;;;12.56;75.56;95859.56;5072991;28;19942;-83
2023/05/16 01:01:45;;;;;;;;;;;13.40;82.00;;;12.54;75.43;95862.59;5074152;28;19920;-83
2023/05/16 01:04:13;;;;;;;;;;;13.40;82.10;;;12.55;75.41;95868.91;5073676;28;19920;-83
2023/05/16 01:06:41;;;;;;;;;;;13.40;82.00;;;12.53;74.88;95869.22;5057311;28;20370;-83
2023/05/16 01:09:10;;;;;;;;;;;13.40;81.60;;;12.54;75.16;95870.84;5072923;28;19920;-83
2023/05/16 01:11:42;;;;;;;;;;;13.40;81.90;;;12.54;75.67;95879.09;5091705;28;19926;-83
2023/05/16 01:14:14;;;;;;;;;;;13.40;82.30;;;12.54;75.13;95875.50;5056861;28;19920;-83
2023/05/16 01:16:47;;;;;;;;;;;13.40;81.90;;;12.55;75.66;95877.16;5073601;28;19920;-83
2023/05/16 01:19:23;;;;;;;;;;;13.40;82.10;;;12.52;75.62;95886.78;5090856;28;19924;-83
2023/05/16 01:21:56;;;;;;;;;;;13.40;82.00;;;12.53;75.46;95882.94;5073744;28;19920;-83
2023/05/16 01:24:30;;;;;;;;;;;13.40;82.30;;;12.52;75.50;95884.03;5073295;28;19927;-83
2023/05/16 01:26:59;;;;;;;;;;;13.40;82.20;;;12.52;75.62;95883.25;5073574;28;19920;-83
2023/05/16 01:29:28;;;;;;;;;;;13.40;82.30;;;12.51;75.55;95889.84;5072816;28;20119;-83
2023/05/16 01:31:57;;;;;;;;;;;13.40;82.00;;;12.50;75.48;95891.75;5091524;28;19920;-83
2023/05/16 01:34:25;;;;;;;;;;;13.40;82.20;;;12.51;75.50;95901.63;5073492;28;19927;-83
2023/05/16 01:36:58;;;;;;;;;;;13.40;82.00;;;12.51;75.14;95901.63;5091316;28;19920;-83
2023/05/16 01:39:42;;;;;;;;;;;13.40;81.60;;;12.52;75.31;95897.78;5090531;28;20107;-83
2023/05/16 01:42:14;;;;;;;;;;;13.40;81.90;;;12.51;74.87;95907.13;5073457;28;19920;-83
2023/05/16 01:44:44;;;;;;;;;;;13.40;81.60;;;12.52;74.83;95903.25;5056483;28;20120;-83
2023/05/16 01:47:13;;;;;;;;;;;13.40;81.70;;;12.53;75.34;95898.56;5073652;28;19920;-83
2023/05/16 01:49:44;;;;;;;;;;;13.40;81.90;;;12.54;75.49;95894.72;5059338;28;19920;-82
2023/05/16 01:52:15;;;;;;;;;;;13.40;82.40;;;12.53;76.17;95909.56;5059978;28;20246;-82
2023/05/16 01:54:45;;;;;;;;;;;13.40;82.80;;;12.53;76.21;95910.41;5076805;28;19920;-83
2023/05/16 01:57:14;;;;;;;;;;;13.40;83.40;;;12.51;76.37;95901.63;5094581;28;19943;-82
2023/05/16 01:59:42;;;;;;;;;;;13.40;83.00;;;12.52;75.60;95897.78;5059112;28;20187;-83
2023/05/16 02:02:11;;;;;;;;;;;13.40;82.50;;;12.53;75.62;95898.56;5060039;28;19920;-83
2023/05/16 02:04:39;;;;;;;;;;;13.40;82.20;;;12.52;75.77;95892.28;5059642;28;20220;-83
2023/05/16 02:07:07;;;;;;;;;;;13.40;82.60;;;12.52;76.06;95899.72;5076795;28;19927;-83
2023/05/16 02:09:35;;;;;;;;;;;13.40;82.70;;;12.52;76.19;95902.47;5075643;28;19932;-83
2023/05/16 02:12:04;;;;;;;;;;;13.40;82.80;;;12.52;75.89;95903.25;5059767;28;19920;-83
2023/05/16 02:14:33;;;;;;;;;;;13.40;82.70;;;12.52;76.54;95905.22;5075350;28;19926;-83
2023/05/16 02:17:01;;;;;;;;;;;13.40;83.30;;;12.52;76.47;95917.00;5058801;28;19929;-83
2023/05/16 02:19:29;;;;;;;;;;;13.40;83.30;;;12.52;76.42;95930.72;5075491;28;19920;-83
2023/05/16 02:21:57;;;;;;;;;;;13.40;82.90;;;12.52;75.92;95925.22;5059629;28;20116;-83
2023/05/16 02:24:25;;;;;;;;;;;13.40;82.70;;;12.53;76.60;95926.88;5076199;28;20341;-83
2023/05/16 02:26:56;;;;;;;;;;;13.40;83.10;;;12.54;76.41;95933.16;5059486;28;19926;-83
2023/05/16 02:29:24;;;;;;;;;;;13.40;83.20;;;12.54;77.00;95935.91;5058763;28;20111;-83
2023/05/16 02:31:53;;;;;;;;;;;13.40;84.00;;;12.54;77.10;95927.69;5059503;28;20234;-83
2023/05/16 02:34:21;;;;;;;;;;;13.40;83.90;;;12.53;76.79;95943.34;5076225;28;19921;-82
2023/05/16 02:36:50;;;;;;;;;;;13.40;83.50;;;12.53;77.14;95940.59;5059424;28;20234;-83
2023/05/16 02:39:18;;;;;;;;;;;13.40;84.00;;;12.54;77.11;95938.66;5058603;28;19926;-83
2023/05/16 02:41:45;;;;;;;;;;;13.40;84.20;;;12.54;77.12;95942.25;5076072;28;19920;-83
2023/05/16 02:44:13;;;;;;;;;;;13.40;83.70;;;12.54;77.03;95934.00;5075748;28;19921;-82
2023/05/16 02:46:42;;;;;;;;;;;13.40;83.80;;;12.54;77.13;95928.50;5059199;28;20208;-82
2023/05/16 02:49:12;;;;;;;;;;;13.40;83.80;;;12.53;76.72;95926.88;5093146;28;19927;-83
2023/05/16 02:51:40;;;;;;;;;;;13.40;83.60;;;12.53;77.00;95920.53;5075839;28;19921;-83
2023/05/16 02:54:08;;;;;;;;;;;13.40;83.80;;;12.54;76.96;95933.16;5059001;28;19934;-83
2023/05/16 02:56:37;;;;;;;;;;;13.40;83.70;;;12.53;76.96;95924.13;5075755;28;20115;-83
2023/05/16 02:59:05;;;;;;;;;;;13.40;83.50;;;12.52;76.89;95930.72;5058027;28;20201;-83
2023/05/16 03:01:33;;;;;;;;;;;13.40;83.70;;;12.54;77.01;95928.50;5058946;28;19927;-83
2023/05/16 03:04:01;;;;;;;;;;;13.40;83.70;;;12.53;77.30;95940.59;5058896;28;19926;-83
2023/05/16 03:06:33;;;;;;;;;;;13.40;83.70;;;12.54;77.33;95944.97;5075709;28;19920;-83
2023/05/16 03:09:01;;;;;;;;;;;13.40;84.00;;;12.54;77.21;95944.97;5075152;28;19920;-83
2023/05/16 03:11:28;;;;;;;;;;;13.40;84.10;;;12.55;77.18;95940.28;5093421;28;19921;-83
2023/05/16 03:13:58;;;;;;;;;;;13.40;84.10;;;12.55;76.94;95941.13;5058752;28;19921;-83
2023/05/16 03:16:26;;;;;;;;;;;13.40;83.90;;;12.54;77.34;95942.25;5075727;28;19920;-83
2023/05/16 03:18:54;;;;;;;;;;;13.40;84.10;;;12.54;77.08;95950.47;5074705;28;19921;-83
2023/05/16 03:21:22;;;;;;;;;;;13.40;84.00;;;12.54;78.10;95950.47;5075396;28;19920;-82
2023/05/16 03:23:51;;;;;;;;;;;13.40;84.90;;;12.56;78.05;95963.91;5075553;28;20208;-83
2023/05/16 03:26:20;;;;;;;;;;;13.40;85.00;;;12.54;77.24;95961.47;5058490;28;19920;-82
2023/05/16 03:28:50;;;;;;;;;;;13.40;84.20;;;12.54;77.75;95966.13;5057935;28;19927;-82
2023/05/16 03:31:18;;;;;;;;;;;13.40;84.50;;;12.55;77.66;95968.59;5058435;28;20212;-82
2023/05/16 03:33:47;;;;;;;;;;;13.40;84.60;;;12.55;77.95;95968.59;5058464;28;19920;-82
2023/05/16 03:36:15;;;;;;;;;;;13.40;85.00;;;-151.14;100.00;62537.16;5092983;28;20208;-82
2023/05/16 03:38:43;;;;;;;;;;;13.40;85.20;;;-151.14;100.00;62537.16;5057933;28;19920;-83
2023/05/16 03:41:12;;;;;;;;;;;13.40;85.00;;;-151.14;100.00;62537.16;5058328;28;19927;-83
2023/05/16 03:43:40;;;;;;;;;;;13.40;85.20;;;-151.14;100.00;62537.16;5054941;28;19920;-83
2023/05/16 03:46:08;;;;;;;;;;;13.40;85.00;;;-151.14;100.00;62537.16;5071663;28;19926;-83
2023/05/16 03:48:36;;;;;;;;;;;13.40;85.10;;;-151.14;100.00;62537.16;5071003;28;19927;-83
2023/05/16 03:51:05;;;;;;;;;;;13.40;85.70;;;-151.14;100.00;62537.16;5054864;28;19920;-83
2023/05/16 03:53:33;;;;;;;;;;;13.40;86.10;;;-151.14;100.00;62537.16;5038290;28;19920;-83
2023/05/16 03:56:01;;;;;;;;;;;13.40;85.90;;;-151.14;100.00;62537.16;5038267;28;20239;-83
2023/05/16 03:58:30;;;;;;;;;;;13.40;86.30;;;-151.14;100.00;62537.16;5037681;28;19926;-83
2023/05/16 04:00:58;;;;;;;;;;;13.40;86.30;;;-151.14;100.00;62537.16;5054530;28;19927;-83
2023/05/16 04:03:27;;;;;;;;;;;13.40;86.50;;;-151.14;100.00;62537.16;5071238;28;19927;-83
2023/05/16 04:05:55;;;;;;;;;;;13.40;85.40;;;-151.14;100.00;62537.16;5054662;28;19927;-83
2023/05/16 04:08:23;;;;;;;;;;;13.40;86.00;;;-151.14;100.00;62537.16;5070927;28;19935;-83
2023/05/16 04:10:51;;;;;;;;;;;13.50;86.70;;;-151.14;100.00;62537.16;5071677;28;19925;-82
2023/05/16 04:13:19;;;;;;;;;;;13.50;87.00;;;-151.14;100.00;62537.16;5054578;28;19925;-83
2023/05/16 04:15:49;;;;;;;;;;;13.50;87.10;;;-151.14;100.00;62537.16;5037884;28;19921;-83
2023/05/16 04:18:16;;;;;;;;;;;13.50;86.50;;;-151.14;100.00;62537.16;5054300;28;19920;-83
2023/05/16 04:20:46;;;;;;;;;;;13.50;86.80;;;-151.14;100.00;62537.16;5070546;28;20212;-83
2023/05/16 04:23:14;;;;;;;;;;;13.50;85.80;;;-151.14;100.00;62537.16;5054583;28;19926;-83
2023/05/16 04:25:42;;;;;;;;;;;13.50;86.50;;;-151.14;100.00;62537.16;5054401;28;19920;-82
2023/05/16 04:28:10;;;;;;;;;;;13.60;83.30;;;-151.14;100.00;62537.16;5037867;28;19927;-83
2023/05/16 04:30:38;;;;;;;;;;;13.50;83.70;;;-151.14;100.00;62537.16;5037096;28;19920;-83
2023/05/16 04:33:08;;;;;;;;;;;13.60;83.70;;;-151.14;100.00;62537.16;5070778;28;19927;-83
2023/05/16 04:35:36;;;;;;;;;;;13.60;83.50;;;-151.14;100.00;62537.16;5037598;28;19927;-83
2023/05/16 04:38:04;;;;;;;;;;;13.60;84.60;;;-151.14;100.00;62537.16;5070842;28;20212;-83
2023/05/16 04:40:32;;;;;;;;;;;13.60;84.40;;;-151.14;100.00;62537.16;5053476;28;19921;-83
2023/05/16 04:43:00;;;;;;;;;;;13.60;85.10;;;-151.14;100.00;62537.16;5037489;28;20220;-83
2023/05/16 04:45:28;;;;;;;;;;;13.60;84.70;;;-151.14;100.00;62537.16;5054084;28;19927;-83
2023/05/16 04:47:56;;;;;;;;;;;13.60;84.40;;;-151.14;100.00;62537.16;5037501;28;19920;-84
2023/05/16 04:50:26;;;;;;;;;;;13.60;84.40;;;-151.14;100.00;62537.16;5053501;28;19927;-81
2023/05/16 04:52:54;;;;;;;;;;;13.70;85.10;;;-151.14;100.00;62537.16;5070605;28;19970;-82
2023/05/16 04:55:22;;;;;;;;;;;13.60;82.20;;;-151.14;100.00;62537.16;5037412;28;19926;-82
2023/05/16 04:57:50;;;;;;;;;;;13.60;81.40;;;-151.14;100.00;62537.16;5037324;28;19920;-82
2023/05/16 05:00:18;;;;;;;;;;;13.60;82.20;;;-151.14;100.00;62537.16;5053000;28;19927;-82
2023/05/16 05:02:46;;;;;;;;;;;13.70;82.60;;;-151.14;100.00;62537.16;5037144;28;19920;-82
2023/05/16 05:05:14;;;;;;;;;;;13.70;83.50;;;-151.14;100.00;62537.16;5071489;28;20039;-82
2023/05/16 05:07:44;;;;;;;;;;;13.60;84.00;;;-151.14;100.00;62537.16;5037455;28;19920;-82
2023/05/16 05:10:12;;;;;;;;;;;13.70;82.40;;;-151.14;100.00;62537.16;5036799;28;19920;-83
2023/05/16 05:12:40;;;;;;;;;;;13.70;81.70;;;-151.14;100.00;62537.16;5070187;28;19943;-83
2023/05/16 05:15:08;;;;;;;;;;;13.60;81.20;;;-151.14;100.00;62537.16;5053699;28;19926;-83
2023/05/16 05:17:37;;;;;;;;;;;13.70;80.80;;;-151.14;100.00;62537.16;5071286;28;19921;-82
2023/05/16 05:20:07;;;;;;;;;;;13.70;81.00;;;-151.14;100.00;62537.16;5070720;28;19921;-82
2023/05/16 05:22:35;;;;;;;;;;;13.60;81.00;;;-151.14;100.00;62537.16;5035655;28;19927;-83
2023/05/16 05:25:06;;;;;;;;;;;13.70;80.80;;;-151.14;100.00;62537.16;5037070;28;19921;-83
2023/05/16 05:27:33;;;;;;;;;;;13.70;81.20;;;-151.14;100.00;62537.16;5053297;28;19943;-83
2023/05/16 05:30:02;;;;;;;;;;;13.70;80.80;;;12.78;100.00;62537.16;5052718;28;19926;-83
2023/05/16 05:32:30;;;;;;;;;;;13.70;81.10;;;-151.14;100.00;62537.16;5053331;28;19921;-83
2023/05/16 05:34:58;;;;;;;;;;;13.70;80.40;;;12.77;100.00;62537.16;5071269;28;19920;-83
2023/05/16 05:37:26;;;;;;;;;;;13.70;80.30;;;-151.14;100.00;62537.16;5053489;28;19920;-82
2023/05/16 05:39:54;;;;;;;;;;;13.70;80.70;;;18.08;100.00;62537.16;5036241;28;19927;-82
2023/05/16 05:42:24;;;;;;;;;;;13.70;80.60;;;-151.14;100.00;62537.16;5036643;28;19920;-83
2023/05/16 05:44:52;;;;;;;;;;;13.70;80.70;;;-151.14;100.00;62537.16;5053544;28;19921;-82
2023/05/16 05:47:20;;;;;;;;;;;13.70;80.40;;;-151.14;100.00;62537.16;5053262;28;20231;-82
2023/05/16 05:49:48;;;;;;;;;;;13.70;80.40;;;-151.14;100.00;62537.16;5036054;28;19935;-83
2023/05/16 05:52:16;;;;;;;;;;;13.70;80.70;;;-151.14;100.00;62537.16;5053244;28;19927;-83
2023/05/16 05:54:44;;;;;;;;;;;13.70;81.20;;;-151.14;100.00;62537.16;5036721;28;20209;-83
2023/05/16 05:57:12;;;;;;;;;;;13.70;80.30;;;-151.14;100.00;62537.16;5036466;28;19927;-83
2023/05/16 05:59:41;;;;;;;;;;;13.70;80.20;;;18.08;100.00;62537.16;5069083;28;19920;-82
2023/05/16 06:02:09;;;;;;;;;;;13.70;79.90;;;-151.14;100.00;62537.16;5053118;28;19927;-83
2023/05/16 06:04:37;;;;;;;;;;;13.70;80.20;;;-151.14;100.00;62537.16;5036492;28;19921;-83
2023/05/16 06:07:05;;;;;;;;;;;13.70;80.20;;;-151.14;100.00;62537.16;5070642;28;19920;-82
2023/05/16 06:09:34;;;;;;;;;;;13.70;80.20;;;-151.14;100.00;62537.16;5052253;28;19927;-83
2023/05/16 06:12:03;;;;;;;;;;;13.70;80.30;;;-151.14;100.00;62537.16;5036370;28;19926;-82
2023/05/16 06:14:31;;;;;;;;;;;13.70;80.20;;;-151.14;100.00;62537.16;5036386;28;19920;-83
2023/05/16 06:17:00;;;;;;;;;;;13.80;80.60;;;-151.14;100.00;62537.16;5052825;28;19926;-82
2023/05/16 06:19:28;;;;;;;;;;;13.80;80.80;;;-151.14;100.00;62537.16;5052077;28;20119;-83
2023/05/16 06:21:56;;;;;;;;;;;13.80;81.50;;;-151.14;100.00;62537.16;5070658;28;19921;-82
2023/05/16 06:24:24;;;;;;;;;;;13.80;82.10;;;-151.14;100.00;62537.16;5052808;28;19920;-82
2023/05/16 06:26:52;;;;;;;;;;;13.80;83.40;;;-151.14;100.00;62537.16;5036064;28;19943;-83
2023/05/16 06:29:20;;;;;;;;;;;13.80;84.00;;;-151.14;100.00;62537.16;5038503;28;19920;-83
2023/05/16 06:31:48;;;;;;;;;;;13.90;83.10;;;-151.14;100.00;62537.16;5090557;28;20238;-83
2023/05/16 06:34:18;;;;;;;;;;;13.90;82.80;;;-151.14;100.00;62537.16;5057869;28;19920;-83
2023/05/16 06:36:46;;;;;;;;;;;13.90;82.80;;;-151.14;100.00;62537.16;5059414;28;19960;-83
2023/05/16 06:39:14;;;;;;;;;;;13.80;82.80;;;-151.14;100.00;62537.16;5058448;28;19924;-82
2023/05/16 06:41:42;;;;;;;;;;;13.90;83.20;;;-151.14;100.00;62537.16;5059315;28;19926;-82
2023/05/16 06:44:16;;;;;;;;;;;13.90;82.10;;;-151.14;100.00;62537.16;5059316;28;19924;-83
2023/05/16 06:46:44;;;;;;;;;;;13.90;81.90;;;-151.14;100.00;62537.16;5075900;28;20124;-83
2023/05/16 06:49:12;;;;;;;;;;;13.90;81.40;;;-151.14;100.00;62537.16;5058536;28;20212;-82
2023/05/16 06:51:42;;;;;;;;;;;13.90;82.00;;;-151.14;100.00;62537.16;5075551;28;19920;-83
2023/05/16 06:54:10;;;;;;;;;;;13.90;82.10;;;-151.14;100.00;62537.16;5059188;28;19926;-82
2023/05/16 06:56:38;;;;;;;;;;;13.90;81.80;;;-151.14;100.00;62537.16;5075708;28;19920;-82
2023/05/16 06:59:06;;;;;;;;;;;13.90;81.20;;;-151.14;100.00;62537.16;5058397;28;19920;-82
2023/05/16 07:01:34;;;;;;;;;;;13.90;80.70;;;-151.14;100.00;62537.16;5075630;28;19942;-83
2023/05/16 07:04:02;;;;;;;;;;;13.90;80.40;;;-151.14;100.00;62537.16;5059069;28;19920;-83
2023/05/16 07:06:30;;;;;;;;;;;13.90;80.10;;;-151.14;100.00;62537.16;5058899;28;19920;-82
2023/05/16 07:09:00;;;;;;;;;;;13.90;80.10;;;-151.14;100.00;62537.16;5075068;28;19921;-82
2023/05/16 07:11:29;;;;;;;;;;;13.80;79.90;;;-151.14;100.00;62537.16;5058915;28;19927;-82
2023/05/16 07:13:56;;;;;;;;;;;13.80;79.70;;;-151.14;100.00;62537.16;5075651;28;19927;-82
2023/05/16 07:16:27;;;;;;;;;;;13.80;79.70;;;-151.14;100.00;62537.16;5058723;28;20361;-83
2023/05/16 07:18:55;;;;;;;;;;;13.80;79.70;;;-151.14;100.00;62537.16;5057673;28;19920;-83
2023/05/16 07:21:23;;;;;;;;;;;13.80;79.60;;;-151.14;100.00;62537.16;5058845;28;19926;-83
2023/05/16 07:23:51;;;;;;;;;;;13.80;79.40;;;-151.14;100.00;62537.16;5058680;28;19920;-83
2023/05/16 07:26:22;;;;;;;;;;;13.90;79.50;;;-151.14;100.00;62537.16;5075556;28;20212;-82
2023/05/16 07:28:50;;;;;;;;;;;13.80;79.30;;;-151.14;100.00;62537.16;5057973;28;20112;-83
2023/05/16 07:31:18;;;;;;;;;;;13.80;79.20;;;-151.14;100.00;62537.16;5058530;28;19926;-83
2023/05/16 07:33:47;;;;;;;;;;;13.80;79.20;;;-151.14;100.00;62537.16;5075027;28;19928;-82
2023/05/16 07:36:15;;;;;;;;;;;13.80;79.20;;;-151.14;100.00;62537.16;5075521;28;19920;-82
2023/05/16 07:38:43;;;;;;;;;;;13.80;79.20;;;-151.14;100.00;62537.16;5074534;28;20208;-82
2023/05/16 07:41:11;;;;;;;;;;;13.80;79.10;;;-151.14;100.00;62537.16;5075137;28;20242;-83
2023/05/16 07:43:41;;;;;;;;;;;13.80;79.10;;;-151.14;100.00;62537.16;5074985;28;19943;-82
2023/05/16 07:46:09;;;;;;;;;;;13.80;79.10;;;-151.14;100.00;62537.16;5057099;28;19920;-83
2023/05/16 07:48:37;;;;;;;;;;;13.80;79.10;;;-151.14;100.00;62537.16;5092216;28;19920;-82
2023/05/16 07:51:05;;;;;;;;;;;13.80;79.10;;;-151.14;100.00;62537.16;5074916;28;19927;-82
2023/05/16 07:53:33;;;;;;;;;;;13.80;79.10;;;-151.14;100.00;62537.16;5074949;28;19920;-82
2023/05/16 07:56:01;;;;;;;;;;;13.80;79.10;;;-151.14;100.00;62537.16;5075125;28;19927;-82
2023/05/16 07:58:29;;;;;;;;;;;13.80;79.20;;;-151.14;100.00;62537.16;5057386;28;19920;-82
2023/05/16 08:00:58;;;;;;;;;;;13.80;79.10;;;-151.14;100.00;62537.16;5074761;28;19920;-82
2023/05/16 08:03:26;;;;;;;;;;;13.80;79.00;;;-151.14;100.00;62537.16;5058061;28;19920;-82
2023/05/16 08:05:54;;;;;;;;;;;13.80;79.10;;;-151.14;100.00;62537.16;5092655;28;19927;-81
2023/05/16 08:08:22;;;;;;;;;;;13.80;78.90;;;-151.14;100.00;62537.16;5074395;28;19927;-82
2023/05/16 08:10:50;;;;;;;;;;;13.80;79.00;;;-151.14;100.00;62537.16;5057652;28;19927;-82
2023/05/16 08:13:19;;;;;;;;;;;13.80;79.00;;;-151.14;100.00;62537.16;5074718;28;20119;-82
2023/05/16 08:15:47;;;;;;;;;;;13.80;78.90;;;-151.14;100.00;62537.16;5074577;28;19926;-82
2023/05/16 08:18:16;;;;;;;;;;;13.80;78.90;;;-151.14;100.00;62537.16;5074281;28;19927;-83
2023/05/16 08:20:44;;;;;;;;;;;13.80;78.90;;;-151.14;100.00;62537.16;5074133;28;19947;-82
2023/05/16 08:23:12;;;;;;;;;;;13.80;78.90;;;-151.14;100.00;62537.16;5092441;28;20212;-82
2023/05/16 08:25:41;;;;;;;;;;;13.80;78.80;;;-151.14;100.00;62537.16;5092201;28;20211;-82
2023/05/16 08:28:09;;;;;;;;;;;13.90;78.80;;;-151.14;100.00;62537.16;5074393;28;19920;-82
2023/05/16 08:30:37;;;;;;;;;;;13.80;78.60;;;-151.14;100.00;62537.16;5073603;28;19921;-83
2023/05/16 08:33:06;;;;;;;;;;;13.90;78.80;;;-151.14;100.00;62537.16;5057619;28;19920;-82
2023/05/16 08:35:35;;;;;;;;;;;13.90;78.80;;;-151.14;100.00;62537.16;5057392;28;19920;-82
2023/05/16 08:38:03;;;;;;;;;;;13.90;78.60;;;-151.14;100.00;62537.16;5092158;28;20204;-83
2023/05/16 08:40:32;;;;;;;;;;;13.90;78.60;;;-151.14;100.00;62537.16;5091456;28;20119;-82
2023/05/16 08:43:01;;;;;;;;;;;13.90;78.70;;;-151.14;100.00;62537.16;5074233;28;19920;-82
2023/05/16 08:45:28;;;;;;;;;;;13.80;78.60;;;-151.14;100.00;62537.16;5074153;28;19927;-82
2023/05/16 08:47:57;;;;;;;;;;;13.90;79.30;;;-151.14;100.00;62537.16;5057433;28;19927;-82
2023/05/16 08:50:25;;;;;;;;;;;13.90;79.10;;;-151.14;100.00;62537.16;5073244;28;19920;-82
2023/05/16 08:52:54;;;;;;;;;;;13.90;78.90;;;-151.14;100.00;62537.16;5074016;28;19920;-82
2023/05/16 08:55:22;;;;;;;;;;;13.90;79.10;;;-151.14;100.00;62537.16;5073950;28;19927;-83
2023/05/16 08:57:51;;;;;;;;;;;13.90;79.20;;;-151.14;100.00;62537.16;5073587;28;19927;-83
2023/05/16 09:00:19;;;;;;;;;;;13.90;79.30;;;-151.14;100.00;62537.16;5073022;28;19926;-82
2023/05/16 09:02:47;;;;;;;;;;;13.90;78.80;;;-151.14;100.00;62537.16;5091810;28;19920;-82
2023/05/16 09:05:16;;;;;;;;;;;13.90;78.70;;;187.61;100.00;62537.16;5073646;28;20208;-82
2023/05/16 09:07:44;;;;;;;;;;;13.90;79.00;;;-151.14;100.00;62537.16;5091667;28;19920;-82
2023/05/16 09:10:13;;;;;;;;;;;13.90;78.80;;;-151.14;100.00;62537.16;5056297;28;19926;-82
2023/05/16 09:12:42;;;;;;;;;;;14.00;78.60;;;187.61;100.00;62537.16;5057041;28;19920;-82
2023/05/16 09:15:10;;;;;;;;;;;14.00;78.50;;;-151.14;100.00;62537.16;5073579;28;19927;-82
2023/05/16 09:17:39;;;;;;;;;;;13.90;78.50;;;13.02;100.00;82910.63;5057098;28;20115;-82
2023/05/16 09:20:11;;;;;;;;;;;14.00;78.50;;;-151.14;100.00;62537.16;5073053;28;19926;-82
2023/05/16 09:22:39;;;;;;;;;;;13.90;78.60;;;13.01;100.00;62537.16;5091498;28;19920;-82
2023/05/16 09:25:08;;;;;;;;;;;13.90;78.30;;;-151.14;100.00;62537.16;5056868;28;19920;-82
2023/05/16 09:27:37;;;;;;;;;;;13.90;78.20;;;-151.14;100.00;62537.16;5073345;28;19920;-82
2023/05/16 09:30:07;;;;;;;;;;;14.00;78.40;;;-151.14;100.00;62537.16;5090699;28;19920;-82
2023/05/16 09:32:35;;;;;;;;;;;13.90;78.60;;;-151.14;100.00;62537.16;5056805;28;19926;-82
2023/05/16 09:35:03;;;;;;;;;;;14.00;78.60;;;187.61;100.00;62537.16;5073547;28;20194;-82
2023/05/16 09:37:31;;;;;;;;;;;13.90;78.60;;;-151.14;100.00;62537.16;5091231;28;19927;-82
2023/05/16 09:39:59;;;;;;;;;;;13.90;79.20;;;-151.14;100.00;62537.16;5072601;28;19943;-82
2023/05/16 09:42:27;;;;;;;;;;;13.90;79.00;;;-151.14;100.00;62537.16;5073394;28;19926;-82
2023/05/16 09:44:56;;;;;;;;;;;14.00;79.20;;;-151.14;100.00;62537.16;5073200;28;20127;-82
2023/05/16 09:47:24;;;;;;;;;;;14.00;79.30;;;-151.14;100.00;62537.16;5056455;28;19920;-82
2023/05/16 09:49:52;;;;;;;;;;;14.00;79.20;;;-151.14;100.00;62537.16;5055492;28;19920;-82
2023/05/16 09:52:20;;;;;;;;;;;14.00;78.90;;;187.61;100.00;62537.16;5073317;28;20322;-83
2023/05/16 09:54:48;;;;;;;;;;;14.00;78.90;;;-151.14;100.00;62537.16;5056589;28;19920;-82
2023/05/16 09:57:18;;;;;;;;;;;14.00;79.50;;;187.61;100.00;62537.16;5056326;28;19927;-82
2023/05/16 09:59:46;;;;;;;;;;;14.00;78.90;;;-151.14;100.00;62537.16;5072421;28;19927;-82
2023/05/16 10:02:16;;;;;;;;;;;14.00;78.90;;;-151.14;100.00;62537.16;5056440;28;20216;-82
2023/05/16 10:04:44;;;;;;;;;;;14.00;80.00;;;-151.14;100.00;62537.16;5091138;28;19946;-82
2023/05/16 10:07:13;;;;;;;;;;;14.10;79.00;;;18.08;100.00;62537.16;5073140;28;19942;-82
2023/05/16 10:09:41;;;;;;;;;;;14.10;79.30;;;-151.14;100.00;62537.16;5092735;28;19920;-82
2023/05/16 10:12:09;;;;;;;;;;;14.10;78.90;;;-151.14;100.00;62537.16;5076585;28;20505;-82
2023/05/16 10:14:37;;;;;;;;;;;14.10;79.10;;;-151.14;100.00;62537.16;5076393;28;19920;-82
2023/05/16 10:17:06;;;;;;;;;;;14.10;78.80;;;-151.14;100.00;62537.16;5076547;28;19920;-82
2023/05/16 10:19:37;;;;;;;;;;;14.10;78.80;;;-151.14;100.00;62537.16;5058912;28;19921;-82
2023/05/16 10:22:06;;;;;;;;;;;14.10;78.60;;;-151.14;100.00;62537.16;5076338;28;19920;-82
2023/05/16 10:24:37;;;;;;;;;;;14.10;78.60;;;-151.14;100.00;62537.16;5076536;28;19920;-82
2023/05/16 10:27:05;;;;;;;;;;;14.10;78.70;;;-151.14;100.00;62537.16;5076303;28;19920;-82
2023/05/16 10:29:33;;;;;;;;;;;14.10;78.50;;;-151.14;100.00;62537.16;5059151;28;19942;-82
2023/05/16 10:32:01;;;;;;;;;;;14.10;78.40;;;-151.14;100.00;62537.16;5059498;28;19920;-82
2023/05/16 10:34:29;;;;;;;;;;;14.10;78.40;;;-151.14;100.00;62537.16;5059687;28;19920;-82
2023/05/16 10:36:59;;;;;;;;;;;14.10;78.30;;;-151.14;100.00;62537.16;5076010;28;19926;-82
2023/05/16 10:39:27;;;;;;;;;;;14.10;78.40;;;-151.14;100.00;62537.16;5075536;28;20207;-82
2023/05/16 10:41:55;;;;;;;;;;;14.10;78.30;;;-151.14;100.00;62537.16;5059188;28;19920;-82
2023/05/16 10:44:23;;;;;;;;;;;14.10;78.30;;;-151.14;100.00;62537.16;5076228;28;19920;-82
2023/05/16 10:46:51;;;;;;;;;;;14.10;78.00;;;-151.14;100.00;62537.16;5059270;28;19920;-82
2023/05/16 10:49:20;;;;;;;;;;;14.10;78.00;;;-151.14;100.00;62537.16;5058497;28;19924;-82
2023/05/16 10:52:04;;;;;;;;;;;14.10;78.20;;;-151.14;100.00;62537.16;5093817;28;19921;-82
2023/05/16 10:54:36;;;;;;;;;;;14.10;78.30;;;-151.14;100.00;62537.16;5075933;28;19934;-82
2023/05/16 10:57:05;;;;;;;;;;;14.10;78.30;;;-151.14;100.00;62537.16;5058989;28;19920;-82
2023/05/16 10:59:40;;;;;;;;;;;14.10;78.30;;;-151.14;100.00;62537.16;5058479;28;20107;-82
2023/05/16 11:02:22;;;;;;;;;;;14.10;78.50;;;-151.14;100.00;62537.16;5075734;28;19926;-83
2023/05/16 11:04:50;;;;;;;;;;;14.10;78.40;;;-151.14;100.00;62537.16;5059221;28;19920;-82
2023/05/16 11:07:20;;;;;;;;;;;14.10;78.40;;;-151.14;100.00;62537.16;5059286;28;19920;-84
2023/05/16 11:10:01;;;;;;;;;;;14.10;78.30;;;-151.14;100.00;62537.16;5058383;28;19942;-84